createdAt,value
2023-05-21T00:00:51.765Z,102216.03
2023-05-21T00:03:18.501Z,102203.66
2023-05-21T00:05:47.221Z,102219.69
2023-05-21T00:08:14.231Z,102223.41
2023-05-21T00:10:41.028Z,102218.88
2023-05-21T00:13:09.125Z,102209.59
2023-05-21T00:15:36.310Z,102213.09
2023-05-21T00:18:03.669Z,102203.38
2023-05-21T00:20:32.415Z,102204.09
2023-05-21T00:23:02.881Z,102207.75
2023-05-21T00:25:29.587Z,102199.84
2023-05-21T00:27:56.760Z,102194.34
2023-05-21T00:30:23.595Z,102192.81
2023-05-21T00:32:50.245Z,102195.50
2023-05-21T00:35:17.265Z,102195.06
2023-05-21T00:37:43.895Z,102197.47
2023-05-21T00:40:11.683Z,102191.41
2023-05-21T00:42:41.647Z,102189.56
2023-05-21T00:45:09.007Z,102196.09
2023-05-21T00:47:36.274Z,102188.91
2023-05-21T00:50:04.657Z,102182.00
2023-05-21T00:52:31.473Z,102186.38
2023-05-21T00:54:58.147Z,102184.53
2023-05-21T00:57:27.267Z,102182.00
2023-05-21T00:59:54.251Z,102181.28
2023-05-21T01:02:24.191Z,102176.94
2023-05-21T01:04:54.590Z,102177.78
2023-05-21T01:07:21.924Z,102173.25
2023-05-21T01:09:48.685Z,102170.88
2023-05-21T01:12:15.596Z,102163.69
2023-05-21T01:14:42.643Z,102166.22
2023-05-21T01:17:10.592Z,102171.72
2023-05-21T01:19:37.663Z,102164.81
2023-05-21T01:22:06.827Z,102170.03
2023-05-21T01:24:33.957Z,102167.50
2023-05-21T01:27:02.506Z,102161.16
2023-05-21T01:29:29.260Z,102166.78
2023-05-21T01:32:22.250Z,102159.44
2023-05-21T01:35:01.322Z,102163.13
2023-05-21T01:37:59.772Z,102162.41
2023-05-21T01:40:39.954Z,102156.06
2023-05-21T01:43:08.304Z,102159.75
2023-05-21T01:45:39.601Z,102155.41
2023-05-21T01:48:09.339Z,102158.91
2023-05-21T01:50:37.831Z,102156.38
2023-05-21T01:53:06.017Z,102152.16
2023-05-21T01:55:33.455Z,102152.03
2023-05-21T01:58:02.185Z,102148.78
2023-05-21T02:00:29.564Z,102150.34
2023-05-21T02:02:56.814Z,102148.50
2023-05-21T02:05:23.587Z,102144.28
2023-05-21T02:07:54.909Z,102153.00
2023-05-21T02:10:21.577Z,102154.84
2023-05-21T02:12:48.484Z,102154.84
2023-05-21T02:15:18.065Z,102159.50
2023-05-21T02:17:46.197Z,102155.84
2023-05-21T02:20:13.769Z,102150.47
2023-05-21T02:22:42.452Z,102155.84
2023-05-21T02:25:10.147Z,102150.47
2023-05-21T02:27:37.953Z,102157.66
2023-05-21T02:30:07.127Z,102152.31
2023-05-21T02:32:34.961Z,102157.81
2023-05-21T02:35:04.247Z,102156.81
2023-05-21T02:37:34.641Z,102149.63
2023-05-21T02:40:05.965Z,102151.59
2023-05-21T02:42:32.735Z,102154.16
2023-05-21T02:44:59.487Z,102159.50
2023-05-21T02:47:26.262Z,102157.81
2023-05-21T02:49:54.076Z,102154.16
2023-05-21T02:52:24.013Z,102154.44
2023-05-21T02:54:51.573Z,102156.97
2023-05-21T02:57:18.434Z,102154.56
2023-05-21T02:59:45.985Z,102148.09
2023-05-21T03:02:12.825Z,102148.09
2023-05-21T03:04:46.082Z,102146.53
2023-05-21T03:07:14.614Z,102143.88
2023-05-21T03:09:42.428Z,102152.88
2023-05-21T03:12:09.839Z,102143.88
2023-05-21T03:14:36.888Z,102150.22
2023-05-21T03:17:06.069Z,102149.06
2023-05-21T03:19:36.451Z,102138.81
2023-05-21T03:22:06.532Z,102138.66
2023-05-21T03:24:33.511Z,102142.16
2023-05-21T03:27:01.509Z,102135.13
2023-05-21T03:29:28.625Z,102143.88
2023-05-21T03:31:55.755Z,102139.50
2023-05-21T03:34:23.288Z,102143.16
2023-05-21T03:36:50.630Z,102136.16
2023-05-21T03:39:17.459Z,102141.31
2023-05-21T03:41:44.152Z,102138.81
2023-05-21T03:44:10.858Z,102126.44
2023-05-21T03:46:37.534Z,102138.97
2023-05-21T03:49:04.354Z,102137.97
2023-05-21T03:51:31.829Z,102142.50
2023-05-21T03:53:59.249Z,102131.06
2023-05-21T03:56:26.307Z,102129.38
2023-05-21T03:58:53.213Z,102127.84
2023-05-21T04:01:20.055Z,102121.63
2023-05-21T04:03:47.032Z,102135.59
2023-05-21T04:06:14.040Z,102128.53
2023-05-21T04:08:40.602Z,102120.66
2023-05-21T04:11:07.195Z,102127.69
2023-05-21T04:13:33.775Z,102124.31
2023-05-21T04:16:00.673Z,102132.22
2023-05-21T04:18:27.346Z,102120.66
2023-05-21T04:20:54.124Z,102124.31
2023-05-21T04:23:23.609Z,102129.69
2023-05-21T04:25:51.016Z,102131.38
2023-05-21T04:28:21.109Z,102135.88
2023-05-21T04:30:48.089Z,102142.22
2023-05-21T04:33:18.187Z,102130.94
2023-05-21T04:35:47.424Z,102139.81
2023-05-21T04:38:14.248Z,102135.31
2023-05-21T04:40:40.994Z,102134.47
2023-05-21T04:43:09.016Z,102143.22
2023-05-21T04:45:36.064Z,102149.41
2023-05-21T04:48:03.070Z,102145.19
2023-05-21T04:50:30.947Z,102141.66
2023-05-21T04:52:59.596Z,102138.97
2023-05-21T04:55:27.571Z,102141.66
2023-05-21T04:57:54.222Z,102143.50
2023-05-21T05:00:21.005Z,102139.97
2023-05-21T05:02:47.664Z,102140.16
2023-05-21T05:05:14.367Z,102147.00
2023-05-21T05:07:41.062Z,102146.34
2023-05-21T05:10:08.266Z,102139.44
2023-05-21T05:12:34.849Z,102139.31
2023-05-21T05:15:01.409Z,102139.31
2023-05-21T05:17:28.099Z,102136.63
2023-05-21T05:19:54.731Z,102141.97
2023-05-21T05:22:21.290Z,102147.31
2023-05-21T05:24:47.922Z,102141.28
2023-05-21T05:27:14.633Z,102147.47
2023-05-21T05:29:41.229Z,102139.59
2023-05-21T05:32:08.045Z,102142.13
2023-05-21T05:34:35.005Z,102135.91
2023-05-21T05:37:02.921Z,102134.22
2023-05-21T05:39:29.541Z,102136.06
2023-05-21T05:41:56.356Z,102141.28
2023-05-21T05:44:22.920Z,102136.06
2023-05-21T05:46:49.531Z,102134.22
2023-05-21T05:49:16.135Z,102130.00
2023-05-21T05:51:42.683Z,102131.69
2023-05-21T05:54:09.298Z,102137.88
2023-05-21T05:56:36.049Z,102125.78
2023-05-21T05:59:02.632Z,102121.41
2023-05-21T06:01:29.215Z,102116.19
2023-05-21T06:03:57.451Z,102130.84
2023-05-21T06:06:24.286Z,102128.16
2023-05-21T06:08:50.953Z,102122.13
2023-05-21T06:11:19.062Z,102120.44
2023-05-21T06:13:45.981Z,102123.25
2023-05-21T06:16:12.852Z,102126.63
2023-05-21T06:18:39.482Z,102123.81
2023-05-21T06:21:06.237Z,102122.13
2023-05-21T06:23:32.912Z,102117.59
2023-05-21T06:25:59.502Z,102111.56
2023-05-21T06:28:26.205Z,102116.06
2023-05-21T06:30:52.842Z,102122.81
2023-05-21T06:33:19.531Z,102119.16
2023-05-21T06:35:46.257Z,102118.44
2023-05-21T06:38:12.875Z,102120.13
2023-05-21T06:40:39.512Z,102122.66
2023-05-21T06:43:06.159Z,102119.00
2023-05-21T06:45:32.740Z,102121.53
2023-05-21T06:47:59.398Z,102112.66
2023-05-21T06:50:26.105Z,102117.03
2023-05-21T06:52:52.688Z,102119.72
2023-05-21T06:55:19.420Z,102117.03
2023-05-21T06:57:46.083Z,102116.91
2023-05-21T07:00:13.262Z,102116.91
2023-05-21T07:02:39.958Z,102098.03
2023-05-21T07:05:06.765Z,102121.09
2023-05-21T07:07:34.890Z,102122.91
2023-05-21T07:10:01.613Z,102123.63
2023-05-21T07:12:28.253Z,102124.59
2023-05-21T07:14:54.889Z,102118.41
2023-05-21T07:17:21.754Z,102117.56
2023-05-21T07:19:48.454Z,102116.56
2023-05-21T07:22:15.051Z,102126.28
2023-05-21T07:24:41.661Z,102120.09
2023-05-21T07:27:17.842Z,102120.09
2023-05-21T07:29:51.860Z,102123.34
2023-05-21T07:32:18.541Z,102125.03
2023-05-21T07:34:45.197Z,102124.88
2023-05-21T07:37:11.796Z,102112.63
2023-05-21T07:39:38.395Z,102128.41
2023-05-21T07:42:05.237Z,102131.06
2023-05-21T07:44:32.035Z,102131.78
2023-05-21T07:46:58.589Z,102125.44
2023-05-21T07:49:25.191Z,102116.69
2023-05-21T07:51:51.838Z,102116.25
2023-05-21T07:54:19.729Z,102111.03
2023-05-21T07:56:46.442Z,102117.09
2023-05-21T07:59:14.889Z,102116.94
2023-05-21T08:01:42.094Z,102115.09
2023-05-21T08:04:08.884Z,102114.97
2023-05-21T08:06:37.565Z,102098.19
2023-05-21T08:09:06.229Z,102118.34
2023-05-21T08:11:33.345Z,102104.94
2023-05-21T08:14:00.716Z,102098.59
2023-05-21T08:16:27.372Z,102102.81
2023-05-21T08:18:54.059Z,102099.16
2023-05-21T08:21:20.926Z,102111.53
2023-05-21T08:23:47.606Z,102112.09
2023-05-21T08:26:16.509Z,102113.78
2023-05-21T08:28:43.474Z,102112.63
2023-05-21T08:31:10.288Z,102111.78
2023-05-21T08:33:38.425Z,102110.50
2023-05-21T08:36:08.286Z,102104.81
2023-05-21T08:38:36.357Z,102113.56
2023-05-21T08:41:06.426Z,102112.28
2023-05-21T08:43:34.423Z,102104.09
2023-05-21T08:46:04.695Z,102112.69
2023-05-21T08:48:31.556Z,102111.53
2023-05-21T08:51:01.187Z,102110.56
2023-05-21T08:53:29.009Z,102092.75
2023-05-21T08:55:57.316Z,102102.94
2023-05-21T08:58:24.581Z,102103.75
2023-05-21T09:00:51.434Z,102100.94
2023-05-21T09:03:18.323Z,102111.66
2023-05-21T09:05:45.921Z,102110.13
2023-05-21T09:08:24.390Z,102101.53
2023-05-21T09:10:52.043Z,102097.16
2023-05-21T09:13:20.708Z,102096.44
2023-05-21T09:15:48.233Z,102102.38
2023-05-21T09:18:15.248Z,102098.56
2023-05-21T09:20:41.996Z,102097.56
2023-05-21T09:23:16.689Z,102094.88
2023-05-21T09:25:48.013Z,102103.06
2023-05-21T09:28:16.127Z,102092.50
2023-05-21T09:30:46.476Z,102096.88
2023-05-21T09:33:24.476Z,102096.16
2023-05-21T09:35:51.090Z,102104.34
2023-05-21T09:38:17.889Z,102101.78
2023-05-21T09:40:46.636Z,102100.81
2023-05-21T09:43:17.198Z,102096.88
2023-05-21T09:45:55.008Z,102101.38
2023-05-21T09:48:38.491Z,102093.50
2023-05-21T09:51:16.257Z,102090.50
2023-05-21T09:54:09.651Z,102092.19
2023-05-21T09:56:36.259Z,102086.69
2023-05-21T09:59:06.777Z,102078.66
2023-05-21T10:01:34.536Z,102078.81
2023-05-21T10:04:04.282Z,102083.16
2023-05-21T10:06:34.716Z,102080.34
2023-05-21T10:09:06.139Z,102067.94
2023-05-21T10:11:34.663Z,102067.78
2023-05-21T10:14:08.837Z,102066.66
2023-05-21T10:16:37.061Z,102066.47
2023-05-21T10:19:05.399Z,102068.00
2023-05-21T10:21:33.541Z,102060.81
2023-05-21T10:24:02.780Z,102063.50
2023-05-21T10:26:30.313Z,102057.81
2023-05-21T10:29:00.182Z,102061.34
2023-05-21T10:31:29.991Z,102061.19
2023-05-21T10:33:56.731Z,102053.00
2023-05-21T10:36:31.042Z,102057.38
2023-05-21T10:39:00.227Z,102062.41
2023-05-21T10:41:31.448Z,102055.91
2023-05-21T10:44:09.882Z,102060.13
2023-05-21T10:46:48.759Z,102053.63
2023-05-21T10:49:38.479Z,102052.91
2023-05-21T10:52:28.581Z,102051.25
2023-05-21T10:55:23.541Z,102055.44
2023-05-21T10:58:19.330Z,102055.31
2023-05-21T11:00:46.453Z,102050.78
2023-05-21T11:03:15.056Z,102047.09
2023-05-21T11:05:52.185Z,102038.22
2023-05-21T11:08:29.030Z,102040.75
2023-05-21T11:10:58.171Z,102047.63
2023-05-21T11:13:26.588Z,102030.38
2023-05-21T11:15:59.539Z,102036.97
2023-05-21T11:18:35.182Z,102036.81
2023-05-21T11:21:06.616Z,102034.66
2023-05-21T11:23:52.327Z,102030.97
2023-05-21T11:26:20.886Z,102032.50
2023-05-21T11:28:51.027Z,102037.56
2023-05-21T11:31:27.746Z,102033.88
2023-05-21T11:34:13.414Z,102027.38
2023-05-21T11:36:42.258Z,102026.38
2023-05-21T11:39:13.159Z,102027.03
2023-05-21T11:42:06.085Z,102025.72
2023-05-21T11:44:45.520Z,102025.59
2023-05-21T11:47:17.875Z,102017.38
2023-05-21T11:49:46.001Z,102015.38
2023-05-21T11:52:13.579Z,102016.22
2023-05-21T11:54:51.957Z,102014.53
2023-05-21T11:57:19.439Z,102006.66
2023-05-21T11:59:47.135Z,102007.94
2023-05-21T12:02:17.859Z,102003.06
2023-05-21T12:04:45.958Z,101996.50
2023-05-21T12:07:15.889Z,102000.47
2023-05-21T12:09:43.187Z,101993.75
2023-05-21T12:12:11.476Z,101994.75
2023-05-21T12:14:38.145Z,101990.41
2023-05-21T12:17:05.862Z,101989.41
2023-05-21T12:19:36.452Z,101991.91
2023-05-21T12:22:07.392Z,101995.75
2023-05-21T12:24:34.754Z,101987.03
2023-05-21T12:27:02.846Z,101984.66
2023-05-21T12:29:33.147Z,101977.91
2023-05-21T12:32:03.660Z,101980.75
2023-05-21T12:34:46.617Z,101979.94
2023-05-21T12:37:22.002Z,101987.28
2023-05-21T12:39:51.267Z,101974.72
2023-05-21T12:42:31.767Z,101975.38
2023-05-21T12:44:58.547Z,101975.91
2023-05-21T12:47:26.711Z,101985.66
2023-05-21T12:50:03.950Z,101971.69
2023-05-21T12:52:33.671Z,101978.25
2023-05-21T12:55:01.000Z,101971.50
2023-05-21T12:57:38.639Z,101969.81
2023-05-21T13:00:07.219Z,101968.13
2023-05-21T13:02:44.507Z,101975.16
2023-05-21T13:05:19.863Z,101977.00
2023-05-21T13:07:47.923Z,101975.16
2023-05-21T13:10:16.529Z,101980.22
2023-05-21T13:12:44.541Z,101976.41
2023-05-21T13:15:11.647Z,101972.88
2023-05-21T13:17:38.280Z,101972.88
2023-05-21T13:20:15.453Z,101970.19
2023-05-21T13:22:45.162Z,101962.47
2023-05-21T13:25:12.330Z,101968.66
2023-05-21T13:27:39.707Z,101961.31
2023-05-21T13:30:07.398Z,101958.47
2023-05-21T13:32:34.555Z,101961.66
2023-05-21T13:35:01.277Z,101968.56
2023-05-21T13:37:28.328Z,101950.63
2023-05-21T13:39:55.001Z,101953.00
2023-05-21T13:42:21.742Z,101944.66
2023-05-21T13:44:48.889Z,101947.84
2023-05-21T13:47:16.125Z,101953.19
2023-05-21T13:49:42.769Z,101941.47
2023-05-21T13:52:09.678Z,101944.16
2023-05-21T13:54:36.871Z,101945.84
2023-05-21T13:57:03.857Z,101943.16
2023-05-21T13:59:32.576Z,101941.00
2023-05-21T14:02:00.621Z,101940.69
2023-05-21T14:04:27.505Z,101947.06
2023-05-21T14:06:54.229Z,101950.59
2023-05-21T14:09:21.455Z,101945.22
2023-05-21T14:11:48.041Z,101945.91
2023-05-21T14:14:18.911Z,101956.97
2023-05-21T14:16:47.280Z,101953.00
2023-05-21T14:19:14.835Z,101934.91
2023-05-21T14:21:41.828Z,101937.97
2023-05-21T14:24:08.456Z,101944.84
2023-05-21T14:26:36.821Z,101950.91
2023-05-21T14:29:03.417Z,101945.38
2023-05-21T14:31:30.114Z,101951.59
2023-05-21T14:33:56.754Z,101941.53
2023-05-21T14:36:23.332Z,101944.91
2023-05-21T14:38:49.915Z,101935.84
2023-05-21T14:41:16.525Z,101938.34
2023-05-21T14:43:43.095Z,101939.34
2023-05-21T14:46:09.751Z,101934.00
2023-05-21T14:48:36.449Z,101934.34
2023-05-21T14:51:03.057Z,101931.31
2023-05-21T14:53:29.638Z,101928.63
2023-05-21T14:55:56.199Z,101927.31
2023-05-21T14:58:22.753Z,101926.16
2023-05-21T15:00:49.349Z,101921.47
2023-05-21T15:03:16.337Z,101921.47
2023-05-21T15:05:43.014Z,101922.31
2023-05-21T15:08:09.717Z,101916.94
2023-05-21T15:10:36.293Z,101915.25
2023-05-21T15:13:02.930Z,101902.53
2023-05-21T15:15:29.514Z,101904.84
2023-05-21T15:17:57.817Z,101900.16
2023-05-21T15:20:24.552Z,101900.84
2023-05-21T15:22:53.486Z,101891.63
2023-05-21T15:25:23.670Z,101900.38
2023-05-21T15:27:50.661Z,101897.69
2023-05-21T15:30:17.467Z,101898.53
2023-05-21T15:32:44.131Z,101894.00
2023-05-21T15:35:10.831Z,101900.22
2023-05-21T15:37:37.489Z,101895.69
2023-05-21T15:40:04.536Z,101889.97
2023-05-21T15:42:31.316Z,101892.16
2023-05-21T15:44:58.191Z,101892.16
2023-05-21T15:47:24.814Z,101882.94
2023-05-21T15:49:51.739Z,101882.63
2023-05-21T15:52:19.823Z,101889.84
2023-05-21T15:54:47.030Z,101880.09
2023-05-21T15:57:13.692Z,101879.94
2023-05-21T15:59:40.333Z,101877.25
2023-05-21T16:02:08.027Z,101877.41
2023-05-21T16:04:34.759Z,101883.97
2023-05-21T16:07:01.413Z,101877.75
2023-05-21T16:09:27.999Z,101875.75
2023-05-21T16:11:54.578Z,101870.03
2023-05-21T16:14:21.157Z,101865.16
2023-05-21T16:16:47.783Z,101867.53
2023-05-21T16:19:14.484Z,101867.03
2023-05-21T16:21:41.670Z,101866.72
2023-05-21T16:24:08.223Z,101870.72
2023-05-21T16:26:34.785Z,101875.66
2023-05-21T16:29:02.251Z,101870.09
2023-05-21T16:31:29.150Z,101868.94
2023-05-21T16:33:55.925Z,101865.91
2023-05-21T16:36:22.501Z,101870.78
2023-05-21T16:38:49.097Z,101860.03
2023-05-21T16:41:15.709Z,101863.41
2023-05-21T16:43:42.284Z,101861.38
2023-05-21T16:46:08.923Z,101861.22
2023-05-21T16:48:38.045Z,101870.78
2023-05-21T16:51:04.814Z,101859.00
2023-05-21T16:53:31.422Z,101858.00
2023-05-21T16:55:58.066Z,101863.91
2023-05-21T16:58:24.712Z,101858.19
2023-05-21T17:00:51.301Z,101865.25
2023-05-21T17:03:18.320Z,101864.03
2023-05-21T17:05:44.971Z,101855.81
2023-05-21T17:08:11.620Z,101867.41
2023-05-21T17:10:38.220Z,101863.88
2023-05-21T17:13:17.649Z,101857.03
2023-05-21T17:15:48.712Z,101859.72
2023-05-21T17:18:15.404Z,101860.72
2023-05-21T17:20:43.707Z,101863.41
2023-05-21T17:23:11.580Z,101868.56
2023-05-21T17:25:38.882Z,101867.56
2023-05-21T17:28:05.827Z,101861.19
2023-05-21T17:30:32.457Z,101868.09
2023-05-21T17:32:59.417Z,101863.72
2023-05-21T17:35:26.014Z,101869.25
2023-05-21T17:37:53.537Z,101859.72
2023-05-21T17:40:21.401Z,101850.97
2023-05-21T17:42:48.587Z,101859.03
2023-05-21T17:45:15.241Z,101857.34
2023-05-21T17:47:41.821Z,101856.69
2023-05-21T17:50:09.085Z,101847.78
2023-05-21T17:52:35.692Z,101855.00
2023-05-21T17:55:02.256Z,101857.69
2023-05-21T17:57:28.908Z,101855.84
2023-05-21T17:59:55.647Z,101851.47
2023-05-21T18:02:23.565Z,101858.53
2023-05-21T18:04:50.203Z,101851.47
2023-05-21T18:07:16.868Z,101859.53
2023-05-21T18:09:43.440Z,101851.63
2023-05-21T18:12:10.032Z,101855.00
2023-05-21T18:14:36.661Z,101854.16
2023-05-21T18:17:03.317Z,101850.63
2023-05-21T18:19:30.526Z,101849.09
2023-05-21T18:21:57.378Z,101850.78
2023-05-21T18:24:24.005Z,101863.38
2023-05-21T18:26:50.613Z,101858.00
2023-05-21T18:29:17.296Z,101862.72
2023-05-21T18:31:45.244Z,101867.25
2023-05-21T18:34:12.052Z,101866.41
2023-05-21T18:36:38.797Z,101865.56
2023-05-21T18:39:09.441Z,101867.44
2023-05-21T18:41:36.177Z,101866.59
2023-05-21T18:44:02.943Z,101870.13
2023-05-21T18:46:29.712Z,101867.44
2023-05-21T18:48:59.736Z,101865.75
2023-05-21T18:51:26.571Z,101863.91
2023-05-21T18:53:53.299Z,101866.59
2023-05-21T18:56:19.939Z,101864.91
2023-05-21T18:58:47.578Z,101865.06
2023-05-21T19:01:14.345Z,101862.38
2023-05-21T19:03:41.058Z,101863.22
2023-05-21T19:06:08.587Z,101870.63
2023-05-21T19:08:35.207Z,101856.66
2023-05-21T19:11:02.041Z,101873.47
2023-05-21T19:13:29.457Z,101867.56
2023-05-21T19:15:57.411Z,101867.91
2023-05-21T19:18:30.223Z,101871.94
2023-05-21T19:20:57.257Z,101870.56
2023-05-21T19:25:51.484Z,101867.19
2023-05-21T19:28:18.948Z,101868.38
2023-05-21T19:30:46.428Z,101869.38
2023-05-21T19:33:13.602Z,101870.22
2023-05-21T19:35:41.922Z,101863.84
2023-05-21T19:38:11.450Z,101859.16
2023-05-21T19:40:38.438Z,101862.00
2023-05-21T19:43:05.376Z,101864.50
2023-05-21T19:45:32.152Z,101861.16
2023-05-21T19:47:59.897Z,101862.66
2023-05-21T19:50:28.662Z,101871.56
2023-05-21T19:52:57.269Z,101865.34
2023-05-21T19:55:24.816Z,101869.88
2023-05-21T19:57:51.697Z,101872.56
2023-05-21T20:00:18.900Z,101875.25
2023-05-21T20:02:46.012Z,101874.56
2023-05-21T20:05:13.105Z,101871.06
2023-05-21T20:07:39.841Z,101880.78
2023-05-21T20:10:07.402Z,101877.25
2023-05-21T20:12:34.226Z,101879.28
2023-05-21T20:15:01.036Z,101888.00
2023-05-21T20:17:28.790Z,101881.78
2023-05-21T20:19:57.293Z,101878.94
2023-05-21T20:22:23.996Z,101884.16
2023-05-21T20:24:50.708Z,101876.25
2023-05-21T20:27:19.608Z,101886.00
2023-05-21T20:29:46.416Z,101884.16
2023-05-21T20:32:13.463Z,101880.78
2023-05-21T20:34:54.336Z,101878.25
2023-05-21T20:37:28.063Z,101871.91
2023-05-21T20:39:57.980Z,101884.16
2023-05-21T20:42:30.742Z,101879.63
2023-05-21T20:45:00.126Z,101876.94
2023-05-21T20:47:30.034Z,101870.03
2023-05-21T20:50:00.206Z,101869.88
2023-05-21T20:52:27.073Z,101871.72
2023-05-21T20:54:59.716Z,101872.72
2023-05-21T20:57:27.388Z,101864.84
2023-05-21T20:59:54.219Z,101865.84
2023-05-21T21:02:21.673Z,101871.06
2023-05-21T21:04:49.814Z,101868.38
2023-05-21T21:07:20.527Z,101866.69
2023-05-21T21:09:48.423Z,101866.69
2023-05-21T21:12:26.170Z,101862.63
2023-05-21T21:14:53.885Z,101874.91
2023-05-21T21:17:20.933Z,101868.84
2023-05-21T21:19:47.631Z,101864.31
2023-05-21T21:22:15.155Z,101862.63
2023-05-21T21:24:41.859Z,101865.31
2023-05-21T21:27:08.478Z,101868.00
2023-05-21T21:29:35.125Z,101863.84
2023-05-21T21:32:01.891Z,101849.56
2023-05-21T21:34:28.513Z,101848.56
2023-05-21T21:36:55.092Z,101847.72
2023-05-21T21:39:21.679Z,101851.41
2023-05-21T21:41:48.318Z,101845.19
2023-05-21T21:44:14.898Z,101848.03
2023-05-21T21:46:41.559Z,101842.84
2023-05-21T21:49:08.124Z,101853.56
2023-05-21T21:51:35.331Z,101848.38
2023-05-21T21:54:02.003Z,101853.41
2023-05-21T21:56:29.598Z,101850.91
2023-05-21T21:58:56.172Z,101852.06
2023-05-21T22:01:22.990Z,101843.84
2023-05-21T22:03:49.809Z,101854.75
2023-05-21T22:06:16.427Z,101854.91
2023-05-21T22:08:43.042Z,101853.22
2023-05-21T22:11:09.696Z,101842.66
2023-05-21T22:13:36.327Z,101838.47
2023-05-21T22:16:03.459Z,101846.38
2023-05-21T22:18:39.666Z,101850.22
2023-05-21T22:21:09.708Z,101840.47
2023-05-21T22:23:37.767Z,101840.47
2023-05-21T22:26:04.650Z,101841.47
2023-05-21T22:28:31.285Z,101835.28
2023-05-21T22:30:58.700Z,101835.28
2023-05-21T22:33:26.673Z,101831.06
2023-05-21T22:35:54.187Z,101826.69
2023-05-21T22:38:20.955Z,101831.91
2023-05-21T22:40:47.602Z,101830.22
2023-05-21T22:43:14.280Z,101821.50
2023-05-21T22:45:40.928Z,101832.91
2023-05-21T22:48:08.989Z,101837.59
2023-05-21T22:50:36.275Z,101822.66
2023-05-21T22:53:03.243Z,101818.97
2023-05-21T22:55:29.906Z,101826.38
2023-05-21T22:57:56.648Z,101822.16
2023-05-21T23:00:23.613Z,101819.47
2023-05-21T23:02:53.008Z,101818.97
2023-05-21T23:05:20.872Z,101813.75
2023-05-21T23:07:47.556Z,101812.91
2023-05-21T23:10:14.456Z,101817.28
2023-05-21T23:12:41.329Z,101821.81
2023-05-21T23:15:09.749Z,101815.75
2023-05-21T23:17:37.344Z,101809.53
2023-05-21T23:20:04.790Z,101816.59
2023-05-21T23:22:31.673Z,101813.91
2023-05-21T23:24:58.298Z,101818.28
2023-05-21T23:27:24.944Z,101816.44
2023-05-21T23:29:51.568Z,101830.69
2023-05-21T23:32:18.376Z,101829.84
2023-05-21T23:34:45.044Z,101831.53
2023-05-21T23:37:11.755Z,101843.13
2023-05-21T23:39:38.360Z,101843.13
2023-05-21T23:42:05.469Z,101833.22
2023-05-21T23:44:32.072Z,101832.38
2023-05-21T23:46:58.705Z,101829.69
2023-05-21T23:49:25.357Z,101819.28
2023-05-21T23:51:52.309Z,101822.81
2023-05-21T23:54:19.018Z,101821.13
2023-05-21T23:56:45.936Z,101813.22
2023-05-21T23:59:12.507Z,101808.72
